createdAt,value
2022-11-01T00:02:48.841Z,38.50
2022-11-01T00:07:53.785Z,35.13
2022-11-01T00:12:56.478Z,35.67
2022-11-01T00:17:59.138Z,77.53
2022-11-01T00:23:02.103Z,38.95
2022-11-01T00:28:05.325Z,53.10
2022-11-01T00:33:08.470Z,34.47
2022-11-01T00:38:11.255Z,41.33
2022-11-01T00:43:14.385Z,51.03
2022-11-01T00:48:17.168Z,106.95
2022-11-01T00:53:20.140Z,72.00
2022-11-01T00:58:22.812Z,46.80
2022-11-01T01:03:25.641Z,40.83
2022-11-01T01:08:28.675Z,37.33
2022-11-01T01:13:31.697Z,33.70
2022-11-01T01:18:34.671Z,39.20
2022-11-01T01:23:37.409Z,46.37
2022-11-01T01:28:43.663Z,40.03
2022-11-01T01:33:47.625Z,37.80
2022-11-01T01:38:53.513Z,43.55
2022-11-01T01:43:56.164Z,62.88
2022-11-01T01:49:00.623Z,45.10
2022-11-01T01:54:03.268Z,50.75
2022-11-01T01:59:07.976Z,55.97
2022-11-01T02:04:24.021Z,36.10
2022-11-01T02:09:29.391Z,61.60
2022-11-01T02:14:33.726Z,57.43
2022-11-01T02:19:41.870Z,55.63
2022-11-01T02:25:11.173Z,48.00
2022-11-01T02:30:20.130Z,43.08
2022-11-01T02:35:37.770Z,47.30
2022-11-01T02:41:01.446Z,54.70
2022-11-01T02:46:26.358Z,53.67
2022-11-01T02:51:30.390Z,60.10
2022-11-01T02:56:33.270Z,59.60
2022-11-01T03:01:37.717Z,48.30
2022-11-01T03:06:46.969Z,64.13
2022-11-01T03:11:58.167Z,83.97
2022-11-01T03:17:08.007Z,71.03
2022-11-01T03:22:39.887Z,61.03
2022-11-01T03:27:44.978Z,68.97
2022-11-01T03:32:50.030Z,96.90
2022-11-01T03:37:56.868Z,86.35
2022-11-01T03:43:04.554Z,59.23
2022-11-01T03:48:07.958Z,89.30
2022-11-01T03:53:10.728Z,77.43
2022-11-01T03:58:13.349Z,87.30
2022-11-01T04:03:16.009Z,86.63
2022-11-01T04:08:18.705Z,85.47
2022-11-01T04:13:21.312Z,73.57
2022-11-01T04:18:43.610Z,76.72
2022-11-01T04:23:47.566Z,70.33
2022-11-01T04:29:00.030Z,72.78
2022-11-01T04:34:04.579Z,84.97
2022-11-01T04:39:07.427Z,98.45
2022-11-01T04:44:10.160Z,84.60
2022-11-01T04:49:12.839Z,100.23
2022-11-01T04:54:15.681Z,107.85
2022-11-01T04:59:18.307Z,93.50
2022-11-01T05:04:20.924Z,127.18
2022-11-01T05:09:23.564Z,122.75
2022-11-01T05:14:26.238Z,86.33
2022-11-01T05:19:28.867Z,109.82
2022-11-01T05:24:31.513Z,83.60
2022-11-01T05:29:34.182Z,74.22
2022-11-01T05:34:36.837Z,71.00
2022-11-01T05:39:39.619Z,41.10
2022-11-01T05:44:42.246Z,77.63
2022-11-01T05:49:45.120Z,58.10
2022-11-01T05:54:47.991Z,55.60
2022-11-01T05:59:50.770Z,65.40
2022-11-01T06:04:53.528Z,49.37
2022-11-01T06:09:56.508Z,38.90
2022-11-01T06:14:59.468Z,33.80
2022-11-01T06:20:02.414Z,33.40
2022-11-01T06:25:06.560Z,22.77
2022-11-01T06:30:10.309Z,20.77
2022-11-01T06:35:13.307Z,18.08
2022-11-01T06:40:16.007Z,18.83
2022-11-01T06:45:18.733Z,17.50
2022-11-01T06:50:22.338Z,22.40
2022-11-01T06:55:29.580Z,30.40
2022-11-01T07:00:33.711Z,29.63
2022-11-01T07:05:37.950Z,19.20
2022-11-01T07:10:43.329Z,23.95
2022-11-01T07:15:46.356Z,30.10
2022-11-01T07:20:49.663Z,31.40
2022-11-01T07:25:53.359Z,32.40
2022-11-01T07:30:56.958Z,45.57
2022-11-01T07:36:01.628Z,34.55
2022-11-01T07:41:05.537Z,36.60
2022-11-01T07:46:08.550Z,32.43
2022-11-01T07:51:11.493Z,33.50
2022-11-01T07:56:14.304Z,37.47
2022-11-01T08:01:17.153Z,45.78
2022-11-01T08:06:19.888Z,56.53
2022-11-01T08:11:22.818Z,41.30
2022-11-01T08:16:25.599Z,38.75
2022-11-01T08:21:28.858Z,34.57
2022-11-01T08:26:31.764Z,37.97
2022-11-01T08:31:34.533Z,39.83
2022-11-01T08:36:37.521Z,32.20
2022-11-01T08:41:40.355Z,30.83
2022-11-01T08:46:43.760Z,30.57
2022-11-01T08:51:46.649Z,35.92
2022-11-01T08:56:49.639Z,30.52
2022-11-01T09:01:52.736Z,35.97
2022-11-01T09:06:56.378Z,33.70
2022-11-01T09:11:59.040Z,30.77
2022-11-01T09:17:01.752Z,35.80
2022-11-01T09:22:04.518Z,37.15
2022-11-01T09:27:10.454Z,28.47
2022-11-01T09:32:13.130Z,30.23
2022-11-01T09:37:17.145Z,34.43
2022-11-01T09:42:42.339Z,31.23
2022-11-01T09:47:49.164Z,35.80
2022-11-01T09:52:53.299Z,35.67
2022-11-01T09:58:07.138Z,30.02
2022-11-01T10:03:33.921Z,27.50
2022-11-01T10:09:11.705Z,32.97
2022-11-01T10:14:35.693Z,30.02
2022-11-01T10:19:42.031Z,27.57
2022-11-01T10:24:44.757Z,35.17
2022-11-01T10:30:00.649Z,33.10
2022-11-01T10:35:17.366Z,28.00
2022-11-01T10:40:27.577Z,28.05
2022-11-01T10:45:31.199Z,23.27
2022-11-01T10:50:34.489Z,26.85
2022-11-01T10:55:51.350Z,25.67
2022-11-01T11:00:54.362Z,24.42
2022-11-01T11:05:59.838Z,24.77
2022-11-01T11:11:12.060Z,28.73
2022-11-01T11:16:46.876Z,23.88
2022-11-01T11:21:51.897Z,29.40
2022-11-01T11:26:58.630Z,25.70
2022-11-01T11:32:03.248Z,28.55
2022-11-01T11:37:09.048Z,24.63
2022-11-01T11:42:20.997Z,25.73
2022-11-01T11:47:26.495Z,26.37
2022-11-01T11:52:39.014Z,24.52
2022-11-01T11:57:52.424Z,25.35
2022-11-01T12:02:55.495Z,22.17
2022-11-01T12:07:58.929Z,24.88
2022-11-01T12:13:33.569Z,23.77
2022-11-01T12:18:53.556Z,26.85
2022-11-01T12:24:27.497Z,23.27
2022-11-01T12:29:37.638Z,21.20
2022-11-01T12:34:42.828Z,20.05
2022-11-01T12:39:57.348Z,22.43
2022-11-01T12:45:24.548Z,23.42
2022-11-01T12:50:33.899Z,22.40
2022-11-01T12:55:42.493Z,17.90
2022-11-01T13:01:22.420Z,21.20
2022-11-01T13:06:50.147Z,21.50
2022-11-01T13:11:58.909Z,21.15
2022-11-01T13:17:28.307Z,18.40
2022-11-01T13:22:39.769Z,19.83
2022-11-01T13:27:54.808Z,18.48
2022-11-01T13:33:11.618Z,17.70
2022-11-01T13:38:43.169Z,16.65
2022-11-01T13:43:53.218Z,13.95
2022-11-01T13:49:07.019Z,10.73
2022-11-01T13:54:33.228Z,10.00
2022-11-01T13:59:45.048Z,10.00
2022-11-01T14:04:59.198Z,12.48
2022-11-01T14:10:08.900Z,10.43
2022-11-01T14:15:32.195Z,14.43
2022-11-01T14:20:49.726Z,13.98
2022-11-01T14:26:21.580Z,11.33
2022-11-01T14:31:28.139Z,13.63
2022-11-01T14:36:36.749Z,9.35
2022-11-01T14:41:41.494Z,12.07
2022-11-01T14:46:48.427Z,11.00
2022-11-01T14:52:00.447Z,12.20
2022-11-01T14:57:03.281Z,15.05
2022-11-01T15:02:08.080Z,16.20
2022-11-01T15:07:43.636Z,15.00
2022-11-01T15:12:59.110Z,15.98
2022-11-01T15:18:13.380Z,19.27
2022-11-01T15:23:30.757Z,15.80
2022-11-01T15:28:52.870Z,20.13
2022-11-01T15:33:55.589Z,17.63
2022-11-01T15:39:00.824Z,22.83
2022-11-01T15:44:06.455Z,19.73
2022-11-01T15:49:18.067Z,15.48
2022-11-01T15:54:33.396Z,11.13
2022-11-01T15:59:45.637Z,18.13
2022-11-01T16:04:48.681Z,17.88
2022-11-01T16:09:58.890Z,15.83
2022-11-01T16:15:31.750Z,16.27
2022-11-01T16:20:42.604Z,16.60
2022-11-01T16:25:45.664Z,18.47
2022-11-01T16:30:55.748Z,14.52
2022-11-01T16:36:18.171Z,17.63
2022-11-01T16:41:24.525Z,20.05
2022-11-01T16:46:30.326Z,18.55
2022-11-01T16:51:33.709Z,18.03
2022-11-01T16:56:48.229Z,15.55
2022-11-01T17:01:52.390Z,16.90
2022-11-01T17:06:58.735Z,13.20
2022-11-01T17:12:01.767Z,15.82
2022-11-01T17:17:08.833Z,19.73
2022-11-01T17:22:22.373Z,24.02
2022-11-01T17:27:25.140Z,20.30
2022-11-01T17:32:27.908Z,21.58
2022-11-01T17:37:32.574Z,21.92
2022-11-01T17:42:36.011Z,20.40
2022-11-01T17:47:38.750Z,24.92
2022-11-01T17:52:42.770Z,24.93
2022-11-01T17:57:45.769Z,25.05
2022-11-01T18:02:50.228Z,24.23
2022-11-01T18:07:53.420Z,24.00
2022-11-01T18:13:30.449Z,24.85
2022-11-01T18:18:48.270Z,20.90
2022-11-01T18:23:54.871Z,22.48
2022-11-01T18:29:16.370Z,21.65
2022-11-01T18:34:44.671Z,21.57
2022-11-01T18:40:19.611Z,18.42
2022-11-01T18:45:30.967Z,26.17
2022-11-01T18:50:38.842Z,24.27
2022-11-01T18:55:44.792Z,21.63
2022-11-01T19:01:25.876Z,23.73
2022-11-01T19:06:32.107Z,22.80
2022-11-01T19:11:35.203Z,25.20
2022-11-01T19:16:38.416Z,23.77
2022-11-01T19:21:41.485Z,23.08
2022-11-01T19:26:44.890Z,27.77
2022-11-01T19:31:58.474Z,21.05
2022-11-01T19:37:06.645Z,22.57
2022-11-01T19:42:27.081Z,21.50
2022-11-01T19:47:40.536Z,26.08
2022-11-01T19:52:47.338Z,24.80
2022-11-01T19:57:50.712Z,26.98
2022-11-01T20:02:55.541Z,23.10
2022-11-01T20:08:22.671Z,25.75
2022-11-01T20:13:25.749Z,26.55
2022-11-01T20:18:28.889Z,23.90
2022-11-01T20:23:34.220Z,28.10
2022-11-01T20:28:37.320Z,28.27
2022-11-01T20:33:40.189Z,30.52
2022-11-01T20:38:43.080Z,26.63
2022-11-01T20:43:45.811Z,27.10
2022-11-01T20:48:48.993Z,26.20
2022-11-01T20:53:52.031Z,28.63
2022-11-01T20:58:54.760Z,25.23
2022-11-01T21:03:57.905Z,28.35
2022-11-01T21:09:02.108Z,23.23
2022-11-01T21:14:13.799Z,24.45
2022-11-01T21:19:25.789Z,26.73
2022-11-01T21:24:29.731Z,22.35
2022-11-01T21:29:32.734Z,29.23
2022-11-01T21:34:35.930Z,24.30
2022-11-01T21:39:39.230Z,25.90
2022-11-01T21:44:45.759Z,29.57
2022-11-01T21:49:49.160Z,29.20
2022-11-01T21:54:52.982Z,27.73
2022-11-01T21:59:55.669Z,30.53
2022-11-01T22:04:58.364Z,33.92
2022-11-01T22:10:01.020Z,26.90
2022-11-01T22:15:03.891Z,28.73
2022-11-01T22:20:06.969Z,28.45
2022-11-01T22:25:09.890Z,29.17
2022-11-01T22:30:12.651Z,29.85
2022-11-01T22:35:15.403Z,34.10
2022-11-01T22:40:19.698Z,28.52
2022-11-01T22:45:22.671Z,26.80
2022-11-01T22:50:29.400Z,27.83
2022-11-01T22:55:32.580Z,25.30
2022-11-01T23:00:37.430Z,26.10
2022-11-01T23:05:42.255Z,28.27
2022-11-01T23:10:48.556Z,23.42
2022-11-01T23:15:51.759Z,23.43
2022-11-01T23:21:02.218Z,25.15
2022-11-01T23:26:05.281Z,23.60
2022-11-01T23:31:08.389Z,23.73
2022-11-01T23:36:33.334Z,25.52
2022-11-01T23:41:41.482Z,24.83
2022-11-01T23:46:44.432Z,26.35
2022-11-01T23:51:47.739Z,24.83
2022-11-01T23:56:50.853Z,22.92
